sensor_id;sensor_type;location;lat;lon;timestamp;pressure;altitude;pressure_sealevel;temperature;humidity
65013;BME280;51715;39.432;-77.518;2023-01-23T05:03:43;98462.11;;;7.18;45.93
65013;BME280;51715;39.432;-77.518;2023-01-23T05:06:11;98473.00;;;6.64;46.60
65013;BME280;51715;39.432;-77.518;2023-01-23T05:08:40;98479.88;;;6.80;47.25
65013;BME280;51715;39.432;-77.518;2023-01-23T05:11:09;98472.47;;;6.61;46.54
65013;BME280;51715;39.432;-77.518;2023-01-23T05:13:38;98475.16;;;7.16;46.99
65013;BME280;51715;39.432;-77.518;2023-01-23T05:16:13;98487.98;;;7.34;47.05
65013;BME280;51715;39.432;-77.518;2023-01-23T05:18:41;98500.73;;;7.33;46.87
65013;BME280;51715;39.432;-77.518;2023-01-23T05:21:10;98522.36;;;7.49;46.45
65013;BME280;51715;39.432;-77.518;2023-01-23T05:23:39;98513.24;;;7.46;46.72
65013;BME280;51715;39.432;-77.518;2023-01-23T05:26:07;98544.98;;;7.32;47.12
65013;BME280;51715;39.432;-77.518;2023-01-23T05:28:36;98554.85;;;7.21;47.16
65013;BME280;51715;39.432;-77.518;2023-01-23T05:31:04;98550.14;;;7.49;47.15
65013;BME280;51715;39.432;-77.518;2023-01-23T05:33:32;98536.67;;;7.60;46.95
65013;BME280;51715;39.432;-77.518;2023-01-23T05:36:01;98526.29;;;7.39;46.95
65013;BME280;51715;39.432;-77.518;2023-01-23T05:38:30;98487.87;;;7.42;46.67
65013;BME280;51715;39.432;-77.518;2023-01-23T05:40:58;98481.03;;;7.20;46.86
65013;BME280;51715;39.432;-77.518;2023-01-23T05:43:26;98470.00;;;7.25;46.50
65013;BME280;51715;39.432;-77.518;2023-01-23T05:45:57;98448.79;;;7.30;46.55
65013;BME280;51715;39.432;-77.518;2023-01-23T05:48:26;98417.55;;;7.59;46.05
65013;BME280;51715;39.432;-77.518;2023-01-23T05:50:54;98446.64;;;7.82;45.59
65013;BME280;51715;39.432;-77.518;2023-01-23T05:53:23;98451.43;;;7.33;45.64
65013;BME280;51715;39.432;-77.518;2023-01-23T05:55:51;98444.24;;;7.57;45.37
65013;BME280;51715;39.432;-77.518;2023-01-23T05:58:20;98448.40;;;7.66;45.27
65013;BME280;51715;39.432;-77.518;2023-01-23T06:00:48;98438.33;;;7.78;45.14
65013;BME280;51715;39.432;-77.518;2023-01-23T06:03:17;98427.36;;;7.60;44.96
65013;BME280;51715;39.432;-77.518;2023-01-23T06:05:45;98412.48;;;8.15;45.34
65013;BME280;51715;39.432;-77.518;2023-01-23T06:08:13;98409.80;;;8.19;45.14
65013;BME280;51715;39.432;-77.518;2023-01-23T06:10:41;98415.45;;;8.12;45.22
65013;BME280;51715;39.432;-77.518;2023-01-23T06:13:10;98419.41;;;7.33;45.77
65013;BME280;51715;39.432;-77.518;2023-01-23T06:15:39;98425.92;;;7.09;46.32
65013;BME280;51715;39.432;-77.518;2023-01-23T06:18:13;98435.12;;;7.40;46.22
65013;BME280;51715;39.432;-77.518;2023-01-23T06:20:41;98439.98;;;6.48;47.88
65013;BME280;51715;39.432;-77.518;2023-01-23T06:23:09;98441.74;;;6.97;47.28
65013;BME280;51715;39.432;-77.518;2023-01-23T06:25:37;98444.13;;;7.22;46.69
65013;BME280;51715;39.432;-77.518;2023-01-23T06:28:06;98437.31;;;7.23;46.38
65013;BME280;51715;39.432;-77.518;2023-01-23T06:30:36;98437.41;;;7.60;46.01
65013;BME280;51715;39.432;-77.518;2023-01-23T06:33:09;98438.66;;;7.78;46.02
65013;BME280;51715;39.432;-77.518;2023-01-23T06:35:38;98432.56;;;7.43;45.84
65013;BME280;51715;39.432;-77.518;2023-01-23T06:38:13;98416.32;;;8.07;45.57
65013;BME280;51715;39.432;-77.518;2023-01-23T06:40:42;98405.85;;;8.18;45.58
65013;BME280;51715;39.432;-77.518;2023-01-23T06:43:10;98421.74;;;7.90;45.30
65013;BME280;51715;39.432;-77.518;2023-01-23T06:45:42;98426.27;;;7.35;46.05
65013;BME280;51715;39.432;-77.518;2023-01-23T06:48:10;98426.40;;;7.76;45.97
65013;BME280;51715;39.432;-77.518;2023-01-23T06:50:39;98405.38;;;7.49;45.68
65013;BME280;51715;39.432;-77.518;2023-01-23T06:53:08;98405.62;;;7.80;45.80
65013;BME280;51715;39.432;-77.518;2023-01-23T06:55:36;98428.27;;;7.78;45.71
65013;BME280;51715;39.432;-77.518;2023-01-23T06:58:05;98428.17;;;7.90;45.79
65013;BME280;51715;39.432;-77.518;2023-01-23T07:00:33;98414.81;;;7.56;45.54
65013;BME280;51715;39.432;-77.518;2023-01-23T07:03:01;98404.76;;;8.18;45.22
65013;BME280;51715;39.432;-77.518;2023-01-23T07:05:31;98408.10;;;8.10;45.26
65013;BME280;51715;39.432;-77.518;2023-01-23T07:07:59;98411.29;;;7.72;45.62
65013;BME280;51715;39.432;-77.518;2023-01-23T07:10:27;98405.48;;;7.55;45.60
65013;BME280;51715;39.432;-77.518;2023-01-23T07:12:55;98406.59;;;7.54;45.35
65013;BME280;51715;39.432;-77.518;2023-01-23T07:15:24;98394.84;;;7.65;45.47
65013;BME280;51715;39.432;-77.518;2023-01-23T07:17:53;98387.23;;;7.73;45.31
65013;BME280;51715;39.432;-77.518;2023-01-23T07:20:22;98381.81;;;8.03;45.46
65013;BME280;51715;39.432;-77.518;2023-01-23T07:22:51;98371.63;;;7.91;45.90
65013;BME280;51715;39.432;-77.518;2023-01-23T07:25:18;98364.49;;;7.75;45.89
65013;BME280;51715;39.432;-77.518;2023-01-23T07:27:47;98366.40;;;7.68;46.14
65013;BME280;51715;39.432;-77.518;2023-01-23T07:30:16;98361.14;;;7.77;46.02
65013;BME280;51715;39.432;-77.518;2023-01-23T07:32:44;98362.95;;;7.68;45.70
65013;BME280;51715;39.432;-77.518;2023-01-23T07:35:13;98360.59;;;7.91;45.47
65013;BME280;51715;39.432;-77.518;2023-01-23T07:37:42;98355.48;;;7.64;45.69
65013;BME280;51715;39.432;-77.518;2023-01-23T07:40:12;98338.46;;;7.94;45.70
65013;BME280;51715;39.432;-77.518;2023-01-23T07:42:40;98329.13;;;7.95;45.70
65013;BME280;51715;39.432;-77.518;2023-01-23T07:45:10;98331.08;;;7.44;45.65
65013;BME280;51715;39.432;-77.518;2023-01-23T07:47:40;98330.96;;;7.81;45.61
65013;BME280;51715;39.432;-77.518;2023-01-23T07:50:11;98327.12;;;7.86;45.64
65013;BME280;51715;39.432;-77.518;2023-01-23T07:52:39;98334.83;;;7.49;45.48
65013;BME280;51715;39.432;-77.518;2023-01-23T07:55:09;98339.62;;;7.90;45.59
65013;BME280;51715;39.432;-77.518;2023-01-23T07:57:36;98338.20;;;7.55;45.46
65013;BME280;51715;39.432;-77.518;2023-01-23T08:00:07;98331.01;;;8.07;45.51
65013;BME280;51715;39.432;-77.518;2023-01-23T08:02:37;98336.47;;;7.65;45.40
65013;BME280;51715;39.432;-77.518;2023-01-23T08:05:07;98331.81;;;7.89;45.44
65013;BME280;51715;39.432;-77.518;2023-01-23T08:07:35;98329.61;;;7.59;45.28
65013;BME280;51715;39.432;-77.518;2023-01-23T08:10:04;98333.98;;;7.89;45.71
65013;BME280;51715;39.432;-77.518;2023-01-23T08:12:33;98332.05;;;7.80;45.54
65013;BME280;51715;39.432;-77.518;2023-01-23T08:15:02;98334.07;;;7.80;45.31
65013;BME280;51715;39.432;-77.518;2023-01-23T08:17:30;98333.30;;;8.03;45.29
65013;BME280;51715;39.432;-77.518;2023-01-23T08:19:58;98322.36;;;8.28;45.20
65013;BME280;51715;39.432;-77.518;2023-01-23T08:22:28;98335.24;;;7.76;45.25
65013;BME280;51715;39.432;-77.518;2023-01-23T08:24:56;98337.87;;;7.97;45.13
65013;BME280;51715;39.432;-77.518;2023-01-23T08:27:26;98330.86;;;7.82;44.86
65013;BME280;51715;39.432;-77.518;2023-01-23T08:29:53;98322.59;;;8.22;44.48
65013;BME280;51715;39.432;-77.518;2023-01-23T08:32:22;98328.69;;;8.07;45.09
65013;BME280;51715;39.432;-77.518;2023-01-23T08:34:50;98330.80;;;7.57;45.12
65013;BME280;51715;39.432;-77.518;2023-01-23T08:37:18;98339.38;;;8.01;45.25
65013;BME280;51715;39.432;-77.518;2023-01-23T08:39:46;98329.01;;;7.68;45.28
65013;BME280;51715;39.432;-77.518;2023-01-23T08:42:14;98332.11;;;6.69;47.03
65013;BME280;51715;39.432;-77.518;2023-01-23T08:44:42;98332.43;;;7.13;46.75
65013;BME280;51715;39.432;-77.518;2023-01-23T08:47:10;98331.37;;;7.14;46.48
65013;BME280;51715;39.432;-77.518;2023-01-23T08:49:38;98335.43;;;7.14;46.08
65013;BME280;51715;39.432;-77.518;2023-01-23T08:52:06;98351.28;;;7.42;46.00
65013;BME280;51715;39.432;-77.518;2023-01-23T08:54:35;98349.48;;;7.23;46.30
65013;BME280;51715;39.432;-77.518;2023-01-23T08:57:03;98351.29;;;7.28;45.99
65013;BME280;51715;39.432;-77.518;2023-01-23T08:59:31;98350.16;;;6.73;47.41
65013;BME280;51715;39.432;-77.518;2023-01-23T09:02:00;98347.93;;;6.77;47.34
65013;BME280;51715;39.432;-77.518;2023-01-23T09:04:28;98361.39;;;6.84;46.84
65013;BME280;51715;39.432;-77.518;2023-01-23T09:06:57;98357.65;;;6.84;46.24
65013;BME280;51715;39.432;-77.518;2023-01-23T09:09:27;98347.92;;;7.04;46.23
65013;BME280;51715;39.432;-77.518;2023-01-23T09:11:56;98336.13;;;7.11;46.85
65013;BME280;51715;39.432;-77.518;2023-01-23T09:14:24;98357.72;;;6.69;47.17
65013;BME280;51715;39.432;-77.518;2023-01-23T09:16:52;98351.73;;;6.71;46.88
65013;BME280;51715;39.432;-77.518;2023-01-23T09:19:20;98349.74;;;6.83;46.62
65013;BME280;51715;39.432;-77.518;2023-01-23T09:21:51;98344.91;;;6.63;47.05
65013;BME280;51715;39.432;-77.518;2023-01-23T09:24:20;98346.81;;;6.86;46.81
65013;BME280;51715;39.432;-77.518;2023-01-23T09:26:49;98362.57;;;6.99;46.51
65013;BME280;51715;39.432;-77.518;2023-01-23T09:29:17;98367.31;;;6.05;46.81
65013;BME280;51715;39.432;-77.518;2023-01-23T09:31:46;98354.22;;;6.82;46.58
65013;BME280;51715;39.432;-77.518;2023-01-23T09:34:14;98337.63;;;6.74;46.77
65013;BME280;51715;39.432;-77.518;2023-01-23T09:36:42;98342.96;;;6.69;46.64
65013;BME280;51715;39.432;-77.518;2023-01-23T09:39:10;98342.17;;;6.66;46.54
65013;BME280;51715;39.432;-77.518;2023-01-23T09:41:39;98356.49;;;6.55;47.14
65013;BME280;51715;39.432;-77.518;2023-01-23T09:44:13;98356.96;;;6.59;46.88
65013;BME280;51715;39.432;-77.518;2023-01-23T09:46:47;98344.96;;;6.68;46.52
65013;BME280;51715;39.432;-77.518;2023-01-23T09:49:23;98346.35;;;6.35;47.47
65013;BME280;51715;39.432;-77.518;2023-01-23T09:51:57;98335.83;;;6.49;47.47
65013;BME280;51715;39.432;-77.518;2023-01-23T09:54:33;98322.58;;;6.54;47.40
65013;BME280;51715;39.432;-77.518;2023-01-23T09:57:12;98325.08;;;6.04;48.23
65013;BME280;51715;39.432;-77.518;2023-01-23T09:59:45;98335.41;;;6.53;47.37
65013;BME280;51715;39.432;-77.518;2023-01-23T10:02:17;98327.87;;;6.82;46.93
65013;BME280;51715;39.432;-77.518;2023-01-23T10:04:47;98312.87;;;6.60;46.84
65013;BME280;51715;39.432;-77.518;2023-01-23T10:07:30;98326.62;;;6.69;47.38
65013;BME280;51715;39.432;-77.518;2023-01-23T10:10:32;98348.14;;;6.90;46.96
65013;BME280;51715;39.432;-77.518;2023-01-23T10:13:09;98366.03;;;6.97;46.53
65013;BME280;51715;39.432;-77.518;2023-01-23T10:15:55;98371.36;;;7.06;46.12
65013;BME280;51715;39.432;-77.518;2023-01-23T10:18:34;98375.48;;;6.88;46.28
65013;BME280;51715;39.432;-77.518;2023-01-23T10:21:23;98383.12;;;7.05;46.02
65013;BME280;51715;39.432;-77.518;2023-01-23T10:24:01;98402.39;;;7.16;45.56
65013;BME280;51715;39.432;-77.518;2023-01-23T10:26:33;98403.36;;;6.93;45.54
65013;BME280;51715;39.432;-77.518;2023-01-23T10:29:13;98388.67;;;7.05;45.85
65013;BME280;51715;39.432;-77.518;2023-01-23T10:31:44;98400.75;;;7.02;45.65
65013;BME280;51715;39.432;-77.518;2023-01-23T10:34:20;98431.94;;;5.72;47.36
65013;BME280;51715;39.432;-77.518;2023-01-23T10:37:03;98455.87;;;6.13;47.14
65013;BME280;51715;39.432;-77.518;2023-01-23T10:39:47;98456.33;;;5.80;47.44
65013;BME280;51715;39.432;-77.518;2023-01-23T10:42:22;98461.37;;;5.84;47.24
65013;BME280;51715;39.432;-77.518;2023-01-23T10:44:52;98463.01;;;6.06;46.65
65013;BME280;51715;39.432;-77.518;2023-01-23T10:47:23;98482.54;;;6.04;46.52
65013;BME280;51715;39.432;-77.518;2023-01-23T10:49:54;98492.87;;;6.14;46.37
65013;BME280;51715;39.432;-77.518;2023-01-23T10:52:31;98488.38;;;6.19;46.17
65013;BME280;51715;39.432;-77.518;2023-01-23T10:55:00;98484.49;;;6.06;46.06
65013;BME280;51715;39.432;-77.518;2023-01-23T10:57:30;98482.32;;;6.38;45.95
65013;BME280;51715;39.432;-77.518;2023-01-23T11:00:10;98478.06;;;6.37;45.78
65013;BME280;51715;39.432;-77.518;2023-01-23T11:02:47;98478.13;;;6.40;46.09
65013;BME280;51715;39.432;-77.518;2023-01-23T11:05:36;98480.55;;;5.91;47.01
65013;BME280;51715;39.432;-77.518;2023-01-23T11:08:24;98475.01;;;5.93;47.07
65013;BME280;51715;39.432;-77.518;2023-01-23T11:11:04;98472.95;;;5.73;46.73
65013;BME280;51715;39.432;-77.518;2023-01-23T11:13:46;98474.83;;;6.15;46.81
65013;BME280;51715;39.432;-77.518;2023-01-23T11:16:19;98474.52;;;5.90;46.69
65013;BME280;51715;39.432;-77.518;2023-01-23T11:18:52;98478.31;;;6.32;46.36
65013;BME280;51715;39.432;-77.518;2023-01-23T11:21:22;98474.15;;;5.77;46.38
65013;BME280;51715;39.432;-77.518;2023-01-23T11:24:08;98479.76;;;6.17;46.23
65013;BME280;51715;39.432;-77.518;2023-01-23T11:26:37;98480.20;;;6.18;46.03
65013;BME280;51715;39.432;-77.518;2023-01-23T11:29:21;98461.30;;;6.30;45.95
65013;BME280;51715;39.432;-77.518;2023-01-23T11:31:52;98453.56;;;6.25;45.64
65013;BME280;51715;39.432;-77.518;2023-01-23T11:34:26;98453.19;;;5.92;46.06
65013;BME280;51715;39.432;-77.518;2023-01-23T11:37:05;98453.81;;;6.09;45.92
65013;BME280;51715;39.432;-77.518;2023-01-23T11:39:43;98461.99;;;6.06;45.81
65013;BME280;51715;39.432;-77.518;2023-01-23T11:42:14;98465.48;;;6.00;46.08
65013;BME280;51715;39.432;-77.518;2023-01-23T11:44:43;98468.30;;;5.64;46.22
65013;BME280;51715;39.432;-77.518;2023-01-23T11:47:24;98463.43;;;5.68;46.61
65013;BME280;51715;39.432;-77.518;2023-01-23T11:50:10;98457.98;;;5.79;46.66
65013;BME280;51715;39.432;-77.518;2023-01-23T11:52:51;98446.92;;;5.73;46.52
65013;BME280;51715;39.432;-77.518;2023-01-23T11:56:39;98437.87;;;5.80;46.82
65013;BME280;51715;39.432;-77.518;2023-01-23T11:59:21;98451.50;;;5.15;48.05
65013;BME280;51715;39.432;-77.518;2023-01-23T12:02:16;98465.89;;;5.85;47.81
65013;BME280;51715;39.432;-77.518;2023-01-23T12:05:00;98471.57;;;5.81;47.35
65013;BME280;51715;39.432;-77.518;2023-01-23T12:07:38;98474.70;;;6.09;46.92
65013;BME280;51715;39.432;-77.518;2023-01-23T12:10:22;98483.40;;;6.12;46.77
65013;BME280;51715;39.432;-77.518;2023-01-23T12:13:04;98492.27;;;6.13;46.83
65013;BME280;51715;39.432;-77.518;2023-01-23T12:15:45;98500.01;;;5.79;47.05
65013;BME280;51715;39.432;-77.518;2023-01-23T12:18:30;98510.89;;;6.04;47.15
65013;BME280;51715;39.432;-77.518;2023-01-23T12:21:10;98513.83;;;6.28;47.07
65013;BME280;51715;39.432;-77.518;2023-01-23T12:23:51;98522.35;;;6.47;46.57
65013;BME280;51715;39.432;-77.518;2023-01-23T12:26:26;98517.96;;;6.41;46.65
65013;BME280;51715;39.432;-77.518;2023-01-23T12:29:08;98525.54;;;6.39;46.79
65013;BME280;51715;39.432;-77.518;2023-01-23T12:31:48;98530.39;;;6.53;46.93
65013;BME280;51715;39.432;-77.518;2023-01-23T12:34:33;98526.94;;;6.13;46.78
65013;BME280;51715;39.432;-77.518;2023-01-23T12:37:18;98526.86;;;6.38;46.67
65013;BME280;51715;39.432;-77.518;2023-01-23T12:40:00;98526.57;;;6.38;46.78
65013;BME280;51715;39.432;-77.518;2023-01-23T12:42:37;98526.32;;;6.66;46.87
65013;BME280;51715;39.432;-77.518;2023-01-23T12:45:16;98520.02;;;6.38;46.82
65013;BME280;51715;39.432;-77.518;2023-01-23T12:47:54;98518.97;;;6.74;46.88
65013;BME280;51715;39.432;-77.518;2023-01-23T12:51:17;98519.97;;;6.86;46.80
65013;BME280;51715;39.432;-77.518;2023-01-23T12:53:50;98528.93;;;6.63;47.05
65013;BME280;51715;39.432;-77.518;2023-01-23T12:56:23;98533.60;;;6.75;47.13
65013;BME280;51715;39.432;-77.518;2023-01-23T12:58:59;98531.70;;;6.52;47.09
65013;BME280;51715;39.432;-77.518;2023-01-23T13:01:45;98545.51;;;6.28;47.46
65013;BME280;51715;39.432;-77.518;2023-01-23T13:04:35;98546.38;;;6.18;47.88
65013;BME280;51715;39.432;-77.518;2023-01-23T13:07:22;98546.35;;;6.35;47.32
65013;BME280;51715;39.432;-77.518;2023-01-23T13:10:12;98552.89;;;6.27;48.52
65013;BME280;51715;39.432;-77.518;2023-01-23T13:12:43;98551.20;;;5.98;48.45
65013;BME280;51715;39.432;-77.518;2023-01-23T13:15:32;98544.21;;;5.82;49.02
65013;BME280;51715;39.432;-77.518;2023-01-23T13:18:01;98549.05;;;5.91;49.61
65013;BME280;51715;39.432;-77.518;2023-01-23T13:20:31;98556.84;;;5.35;50.58
65013;BME280;51715;39.432;-77.518;2023-01-23T13:23:19;98559.52;;;5.76;49.84
65013;BME280;51715;39.432;-77.518;2023-01-23T13:25:49;98559.76;;;5.75;50.40
65013;BME280;51715;39.432;-77.518;2023-01-23T13:28:32;98555.48;;;5.61;50.08
65013;BME280;51715;39.432;-77.518;2023-01-23T13:31:04;98555.68;;;6.14;49.39
65013;BME280;51715;39.432;-77.518;2023-01-23T13:33:49;98558.17;;;6.16;49.13
65013;BME280;51715;39.432;-77.518;2023-01-23T13:36:24;98554.37;;;6.01;50.07
65013;BME280;51715;39.432;-77.518;2023-01-23T13:39:26;98551.65;;;6.06;49.43
65013;BME280;51715;39.432;-77.518;2023-01-23T13:43:50;98555.38;;;6.15;49.73
65013;BME280;51715;39.432;-77.518;2023-01-23T13:46:27;98562.48;;;5.64;49.45
65013;BME280;51715;39.432;-77.518;2023-01-23T13:49:07;98571.67;;;5.65;50.05
65013;BME280;51715;39.432;-77.518;2023-01-23T13:51:38;98576.91;;;5.92;49.96
65013;BME280;51715;39.432;-77.518;2023-01-23T13:54:13;98577.96;;;5.94;49.88
65013;BME280;51715;39.432;-77.518;2023-01-23T13:56:43;98581.45;;;6.46;49.52
65013;BME280;51715;39.432;-77.518;2023-01-23T13:59:22;98585.29;;;6.06;50.25
65013;BME280;51715;39.432;-77.518;2023-01-23T14:01:59;98593.91;;;5.26;51.47
65013;BME280;51715;39.432;-77.518;2023-01-23T14:04:30;98598.11;;;6.21;50.46
65013;BME280;51715;39.432;-77.518;2023-01-23T14:06:58;98598.88;;;5.64;51.35
65013;BME280;51715;39.432;-77.518;2023-01-23T14:09:29;98605.74;;;5.41;52.44
65013;BME280;51715;39.432;-77.518;2023-01-23T14:11:59;98611.63;;;5.56;52.75
65013;BME280;51715;39.432;-77.518;2023-01-23T14:14:32;98620.77;;;4.54;54.87
65013;BME280;51715;39.432;-77.518;2023-01-23T14:17:02;98621.11;;;5.47;53.19
65013;BME280;51715;39.432;-77.518;2023-01-23T14:19:31;98626.04;;;5.73;53.48
65013;BME280;51715;39.432;-77.518;2023-01-23T14:22:04;98624.60;;;5.80;52.27
65013;BME280;51715;39.432;-77.518;2023-01-23T14:24:42;98635.22;;;5.86;51.24
65013;BME280;51715;39.432;-77.518;2023-01-23T14:27:19;98641.97;;;6.47;51.20
65013;BME280;51715;39.432;-77.518;2023-01-23T14:29:56;98650.06;;;6.63;50.76
65013;BME280;51715;39.432;-77.518;2023-01-23T14:32:28;98655.73;;;6.25;51.61
65013;BME280;51715;39.432;-77.518;2023-01-23T14:34:58;98664.59;;;5.50;54.83
65013;BME280;51715;39.432;-77.518;2023-01-23T14:37:28;98666.11;;;6.36;53.62
65013;BME280;51715;39.432;-77.518;2023-01-23T14:39:59;98667.76;;;6.95;52.32
65013;BME280;51715;39.432;-77.518;2023-01-23T14:42:30;98668.60;;;7.42;49.53
65013;BME280;51715;39.432;-77.518;2023-01-23T14:45:00;98671.60;;;7.73;49.39
65013;BME280;51715;39.432;-77.518;2023-01-23T14:47:32;98679.29;;;8.29;48.95
65013;BME280;51715;39.432;-77.518;2023-01-23T14:50:01;98679.34;;;7.67;48.54
65013;BME280;51715;39.432;-77.518;2023-01-23T14:52:31;98683.53;;;8.48;47.27
65013;BME280;51715;39.432;-77.518;2023-01-23T14:54:59;98685.75;;;7.78;46.65
65013;BME280;51715;39.432;-77.518;2023-01-23T14:57:29;98690.24;;;8.11;47.04
65013;BME280;51715;39.432;-77.518;2023-01-23T14:59:57;98693.55;;;7.30;48.17
65013;BME280;51715;39.432;-77.518;2023-01-23T15:02:32;98701.95;;;7.06;48.62
65013;BME280;51715;39.432;-77.518;2023-01-23T15:05:17;98703.14;;;6.30;51.62
65013;BME280;51715;39.432;-77.518;2023-01-23T15:07:49;98705.44;;;6.66;50.33
65013;BME280;51715;39.432;-77.518;2023-01-23T15:10:20;98710.53;;;6.29;50.60
65013;BME280;51715;39.432;-77.518;2023-01-23T15:12:53;98709.44;;;6.35;50.71
65013;BME280;51715;39.432;-77.518;2023-01-23T15:15:25;98713.93;;;6.59;49.95
65013;BME280;51715;39.432;-77.518;2023-01-23T15:17:55;98723.97;;;6.75;50.27
65013;BME280;51715;39.432;-77.518;2023-01-23T15:20:28;98729.56;;;7.80;49.47
65013;BME280;51715;39.432;-77.518;2023-01-23T15:23:11;98734.24;;;6.74;50.98
65013;BME280;51715;39.432;-77.518;2023-01-23T15:25:41;98728.89;;;7.43;50.88
65013;BME280;51715;39.432;-77.518;2023-01-23T15:28:50;98730.03;;;8.11;46.76
65013;BME280;51715;39.432;-77.518;2023-01-23T15:31:23;98728.09;;;8.45;44.12
65013;BME280;51715;39.432;-77.518;2023-01-23T15:33:54;98727.43;;;8.68;43.68
65013;BME280;51715;39.432;-77.518;2023-01-23T15:36:26;98728.17;;;9.22;43.00
65013;BME280;51715;39.432;-77.518;2023-01-23T15:38:57;98724.68;;;9.28;42.23
65013;BME280;51715;39.432;-77.518;2023-01-23T15:41:42;98732.30;;;9.36;42.79
65013;BME280;51715;39.432;-77.518;2023-01-23T15:44:13;98730.93;;;10.09;39.84
65013;BME280;51715;39.432;-77.518;2023-01-23T15:46:42;98740.79;;;9.89;39.43
65013;BME280;51715;39.432;-77.518;2023-01-23T15:49:11;98744.24;;;9.57;39.96
65013;BME280;51715;39.432;-77.518;2023-01-23T15:51:40;98742.30;;;8.61;40.70
65013;BME280;51715;39.432;-77.518;2023-01-23T15:54:17;98749.27;;;8.85;41.60
65013;BME280;51715;39.432;-77.518;2023-01-23T15:56:46;98752.95;;;8.00;42.32
65013;BME280;51715;39.432;-77.518;2023-01-23T15:59:16;98754.43;;;7.54;42.75
65013;BME280;51715;39.432;-77.518;2023-01-23T16:01:45;98749.05;;;7.61;43.05
65013;BME280;51715;39.432;-77.518;2023-01-23T16:04:15;98753.69;;;6.77;44.89
65013;BME280;51715;39.432;-77.518;2023-01-23T16:06:44;98757.28;;;6.05;46.42
65013;BME280;51715;39.432;-77.518;2023-01-23T16:09:19;98752.81;;;5.41;47.79
65013;BME280;51715;39.432;-77.518;2023-01-23T16:11:47;98757.03;;;5.46;47.67
65013;BME280;51715;39.432;-77.518;2023-01-23T16:14:17;98757.77;;;5.18;47.43
65013;BME280;51715;39.432;-77.518;2023-01-23T16:16:48;98752.06;;;5.33;47.66
65013;BME280;51715;39.432;-77.518;2023-01-23T16:19:17;98745.35;;;6.79;44.94
65013;BME280;51715;39.432;-77.518;2023-01-23T16:21:46;98740.12;;;6.84;44.82
65013;BME280;51715;39.432;-77.518;2023-01-23T16:24:18;98733.76;;;7.44;43.59
65013;BME280;51715;39.432;-77.518;2023-01-23T16:26:47;98731.82;;;7.13;44.18
65013;BME280;51715;39.432;-77.518;2023-01-23T16:29:25;98732.09;;;7.78;43.14
65013;BME280;51715;39.432;-77.518;2023-01-23T16:31:55;98738.71;;;8.92;41.94
65013;BME280;51715;39.432;-77.518;2023-01-23T16:34:24;98734.30;;;8.87;40.53
65013;BME280;51715;39.432;-77.518;2023-01-23T16:36:55;98737.15;;;11.08;37.87
65013;BME280;51715;39.432;-77.518;2023-01-23T16:39:26;98736.35;;;10.94;34.87
65013;BME280;51715;39.432;-77.518;2023-01-23T16:41:57;98732.32;;;11.46;33.91
65013;BME280;51715;39.432;-77.518;2023-01-23T16:44:27;98742.58;;;10.51;35.22
65013;BME280;51715;39.432;-77.518;2023-01-23T16:46:56;98745.80;;;9.85;36.26
65013;BME280;51715;39.432;-77.518;2023-01-23T16:49:24;98747.99;;;8.97;38.09
65013;BME280;51715;39.432;-77.518;2023-01-23T16:52:01;98749.14;;;10.07;37.09
65013;BME280;51715;39.432;-77.518;2023-01-23T16:54:31;98746.49;;;9.62;36.14
65013;BME280;51715;39.432;-77.518;2023-01-23T16:57:01;98748.17;;;10.07;34.39
65013;BME280;51715;39.432;-77.518;2023-01-23T16:59:33;98749.07;;;8.87;36.41
65013;BME280;51715;39.432;-77.518;2023-01-23T17:02:06;98757.69;;;8.56;36.95
65013;BME280;51715;39.432;-77.518;2023-01-23T17:04:42;98764.47;;;7.52;37.83
65013;BME280;51715;39.432;-77.518;2023-01-23T17:07:14;98767.10;;;7.15;38.17
65013;BME280;51715;39.432;-77.518;2023-01-23T17:09:45;98778.58;;;8.10;39.26
65013;BME280;51715;39.432;-77.518;2023-01-23T17:12:16;98783.00;;;7.93;37.92
65013;BME280;51715;39.432;-77.518;2023-01-23T17:14:47;98788.11;;;8.51;38.39
65013;BME280;51715;39.432;-77.518;2023-01-23T17:17:28;98784.79;;;7.79;38.70
65013;BME280;51715;39.432;-77.518;2023-01-23T17:19:59;98790.20;;;6.79;40.44
65013;BME280;51715;39.432;-77.518;2023-01-23T17:22:32;98791.02;;;6.58;40.08
65013;BME280;51715;39.432;-77.518;2023-01-23T17:25:01;98786.48;;;6.63;40.34
65013;BME280;51715;39.432;-77.518;2023-01-23T17:27:29;98794.84;;;6.88;40.33
65013;BME280;51715;39.432;-77.518;2023-01-23T17:29:58;98795.01;;;7.22;38.82
65013;BME280;51715;39.432;-77.518;2023-01-23T17:32:34;98794.24;;;7.83;38.42
65013;BME280;51715;39.432;-77.518;2023-01-23T18:19:21;98810.28;;;7.28;37.04
65013;BME280;51715;39.432;-77.518;2023-01-23T18:21:52;98815.66;;;6.93;35.71
65013;BME280;51715;39.432;-77.518;2023-01-23T18:24:25;98820.61;;;7.50;35.15
65013;BME280;51715;39.432;-77.518;2023-01-23T18:26:58;98827.96;;;7.77;34.86
65013;BME280;51715;39.432;-77.518;2023-01-23T18:34:18;98834.05;;;7.95;37.05
65013;BME280;51715;39.432;-77.518;2023-01-23T18:37:01;98843.22;;;7.42;36.34
65013;BME280;51715;39.432;-77.518;2023-01-23T18:40:03;98845.24;;;7.90;36.51
65013;BME280;51715;39.432;-77.518;2023-01-23T18:42:51;98848.10;;;7.93;36.62
65013;BME280;51715;39.432;-77.518;2023-01-23T18:45:23;98854.66;;;7.94;36.53
65013;BME280;51715;39.432;-77.518;2023-01-23T18:47:52;98848.15;;;8.01;35.41
65013;BME280;51715;39.432;-77.518;2023-01-23T18:50:20;98853.18;;;7.65;36.79
65013;BME280;51715;39.432;-77.518;2023-01-23T18:53:09;98846.13;;;7.50;36.84
65013;BME280;51715;39.432;-77.518;2023-01-23T18:56:11;98855.16;;;7.66;37.46
65013;BME280;51715;39.432;-77.518;2023-01-23T18:58:51;98857.33;;;7.82;37.19
65013;BME280;51715;39.432;-77.518;2023-01-23T19:01:27;98868.27;;;7.34;37.02
65013;BME280;51715;39.432;-77.518;2023-01-23T19:06:31;98878.59;;;6.75;38.37
65013;BME280;51715;39.432;-77.518;2023-01-23T19:12:03;98890.75;;;7.05;37.54
65013;BME280;51715;39.432;-77.518;2023-01-23T19:15:21;98888.14;;;7.43;36.72
65013;BME280;51715;39.432;-77.518;2023-01-23T19:17:58;98900.83;;;6.49;38.06
65013;BME280;51715;39.432;-77.518;2023-01-23T19:20:33;98902.32;;;6.69;37.19
65013;BME280;51715;39.432;-77.518;2023-01-23T19:23:16;98905.92;;;5.71;37.96